Kezdőlap
METAR-TAF:

METAR-TAF

Repülőterek :

Logan County Airport

Lincoln, Illinois, Amerikai Egyesült Államok

földrajzi szélesség: 40-09-31N, földrajzi hosszúság: 089-20-06W, magasság: 182 m

Jelenlegi meteorológiai megfigyelések

A jelentés 18 perccel ezelõtt készült, 00:55 UTC
Dél-délkeleti szél 11 kt
Hőmérséklet 25°C
Páratartalom 74%
Légköri nyomás 1007 hPa
Látótávolság: 16.1 km
Szakadozott felhőzet 5000 lábon
Szakadozott felhőzet 9000 lábon
Szakadozott felhőzet 12000 lábon

METAR: KAAA 260055Z AUTO 16011KT 10SM BKN050 BKN090 BKN120 25/20 A2973 RMK AO2 T02490201

Idő: 20:13 (01:13 UTC)


TAF: hiányzik

Meteorológiai megfigyelések és előrejelzések több, mint 4000 repülőtéren (METAR és TAF jelentéseket).

A térképen piros és sárga pontok jelzik az elérhető meteorológiai állomásokat.

Mozgassa az egeret a pont fölött, hogy megjelenjen az állomás neve.

Azután kattintson az időjárási megfigyelések és előrejelzések megtekintéséhez.

A térkép megváltoztatása: kattintson a fekete keresztel jelölt zöld gombra ráközelítéshez, a vonallal jelölt zöld gombra távolításhoz, vagy a zöld nyilakra a szomszédos térképek eléréséhez.


METAR-TAF: